sensor_id;sensor_type;location;lat;lon;timestamp;temperature;humidity
19019;DHT22;9642;50.842;4.348;2022-07-18T00:00:24;23.70;60.00
19019;DHT22;9642;50.842;4.348;2022-07-18T00:02:51;23.70;60.30
19019;DHT22;9642;50.842;4.348;2022-07-18T00:05:16;23.70;60.70
19019;DHT22;9642;50.842;4.348;2022-07-18T00:07:42;23.70;60.50
19019;DHT22;9642;50.842;4.348;2022-07-18T00:10:08;23.60;60.80
19019;DHT22;9642;50.842;4.348;2022-07-18T00:12:34;23.50;61.00
19019;DHT22;9642;50.842;4.348;2022-07-18T00:15:02;23.50;61.20
19019;DHT22;9642;50.842;4.348;2022-07-18T00:17:28;23.60;61.20
19019;DHT22;9642;50.842;4.348;2022-07-18T00:19:54;23.60;61.00
19019;DHT22;9642;50.842;4.348;2022-07-18T00:22:20;23.70;61.00
19019;DHT22;9642;50.842;4.348;2022-07-18T00:24:47;23.70;61.10
19019;DHT22;9642;50.842;4.348;2022-07-18T00:27:13;23.60;60.80
19019;DHT22;9642;50.842;4.348;2022-07-18T00:29:39;23.50;61.40
19019;DHT22;9642;50.842;4.348;2022-07-18T00:32:07;23.40;61.70
19019;DHT22;9642;50.842;4.348;2022-07-18T00:34:34;23.20;62.20
19019;DHT22;9642;50.842;4.348;2022-07-18T00:37:01;23.20;62.30
19019;DHT22;9642;50.842;4.348;2022-07-18T00:39:27;23.20;62.40
19019;DHT22;9642;50.842;4.348;2022-07-18T00:41:53;23.20;62.50
19019;DHT22;9642;50.842;4.348;2022-07-18T00:44:22;23.20;62.50
19019;DHT22;9642;50.842;4.348;2022-07-18T00:46:50;23.10;62.70
19019;DHT22;9642;50.842;4.348;2022-07-18T00:49:17;23.10;62.70
19019;DHT22;9642;50.842;4.348;2022-07-18T00:51:43;23.20;62.60
19019;DHT22;9642;50.842;4.348;2022-07-18T00:54:09;23.20;62.80
19019;DHT22;9642;50.842;4.348;2022-07-18T00:56:35;23.20;62.30
19019;DHT22;9642;50.842;4.348;2022-07-18T00:59:01;23.20;62.10
19019;DHT22;9642;50.842;4.348;2022-07-18T01:01:27;23.30;62.20
19019;DHT22;9642;50.842;4.348;2022-07-18T01:04:14;23.10;62.30
19019;DHT22;9642;50.842;4.348;2022-07-18T01:06:40;23.10;62.70
19019;DHT22;9642;50.842;4.348;2022-07-18T01:09:07;23.00;63.00
19019;DHT22;9642;50.842;4.348;2022-07-18T01:11:34;23.00;62.70
19019;DHT22;9642;50.842;4.348;2022-07-18T01:14:03;23.00;62.80
19019;DHT22;9642;50.842;4.348;2022-07-18T01:16:31;23.00;62.30
19019;DHT22;9642;50.842;4.348;2022-07-18T01:18:58;22.90;63.00
19019;DHT22;9642;50.842;4.348;2022-07-18T01:21:24;22.80;63.70
19019;DHT22;9642;50.842;4.348;2022-07-18T01:23:50;22.80;63.60
19019;DHT22;9642;50.842;4.348;2022-07-18T01:26:17;22.90;63.50
19019;DHT22;9642;50.842;4.348;2022-07-18T01:28:44;22.90;63.70
19019;DHT22;9642;50.842;4.348;2022-07-18T01:31:09;22.80;63.50
19019;DHT22;9642;50.842;4.348;2022-07-18T01:33:36;22.70;64.00
19019;DHT22;9642;50.842;4.348;2022-07-18T01:36:04;22.80;64.10
19019;DHT22;9642;50.842;4.348;2022-07-18T01:38:31;22.70;64.10
19019;DHT22;9642;50.842;4.348;2022-07-18T01:40:58;22.70;64.40
19019;DHT22;9642;50.842;4.348;2022-07-18T01:43:24;22.60;64.00
19019;DHT22;9642;50.842;4.348;2022-07-18T01:45:51;22.50;64.50
19019;DHT22;9642;50.842;4.348;2022-07-18T01:48:17;22.40;64.80
19019;DHT22;9642;50.842;4.348;2022-07-18T01:50:43;22.40;65.20
19019;DHT22;9642;50.842;4.348;2022-07-18T01:53:09;22.40;65.10
19019;DHT22;9642;50.842;4.348;2022-07-18T01:55:35;22.30;65.40
19019;DHT22;9642;50.842;4.348;2022-07-18T01:58:01;22.30;65.40
19019;DHT22;9642;50.842;4.348;2022-07-18T02:00:28;22.20;66.80
19019;DHT22;9642;50.842;4.348;2022-07-18T02:02:54;22.10;66.30
19019;DHT22;9642;50.842;4.348;2022-07-18T02:05:20;22.00;66.50
19019;DHT22;9642;50.842;4.348;2022-07-18T02:07:46;21.90;67.00
19019;DHT22;9642;50.842;4.348;2022-07-18T02:10:14;22.00;67.30
19019;DHT22;9642;50.842;4.348;2022-07-18T02:12:41;22.00;67.20
19019;DHT22;9642;50.842;4.348;2022-07-18T02:15:08;22.00;67.40
19019;DHT22;9642;50.842;4.348;2022-07-18T02:17:35;22.00;67.40
19019;DHT22;9642;50.842;4.348;2022-07-18T02:20:02;22.00;67.20
19019;DHT22;9642;50.842;4.348;2022-07-18T02:22:28;21.90;67.30
19019;DHT22;9642;50.842;4.348;2022-07-18T02:24:55;22.10;67.50
19019;DHT22;9642;50.842;4.348;2022-07-18T02:27:21;21.90;67.40
19019;DHT22;9642;50.842;4.348;2022-07-18T02:29:47;21.90;68.00
19019;DHT22;9642;50.842;4.348;2022-07-18T02:32:13;21.90;67.50
19019;DHT22;9642;50.842;4.348;2022-07-18T02:34:39;21.90;67.70
19019;DHT22;9642;50.842;4.348;2022-07-18T02:37:05;22.00;67.90
19019;DHT22;9642;50.842;4.348;2022-07-18T02:39:31;22.00;67.50
19019;DHT22;9642;50.842;4.348;2022-07-18T02:41:57;21.80;68.10
19019;DHT22;9642;50.842;4.348;2022-07-18T02:44:23;21.90;69.00
19019;DHT22;9642;50.842;4.348;2022-07-18T02:46:49;21.90;68.60
19019;DHT22;9642;50.842;4.348;2022-07-18T02:49:15;21.90;68.40
19019;DHT22;9642;50.842;4.348;2022-07-18T02:51:57;21.80;69.00
19019;DHT22;9642;50.842;4.348;2022-07-18T02:54:24;21.70;69.10
19019;DHT22;9642;50.842;4.348;2022-07-18T02:56:50;21.80;69.30
19019;DHT22;9642;50.842;4.348;2022-07-18T02:59:16;21.80;69.10
19019;DHT22;9642;50.842;4.348;2022-07-18T03:01:42;21.70;69.40
19019;DHT22;9642;50.842;4.348;2022-07-18T03:04:08;21.70;69.40
19019;DHT22;9642;50.842;4.348;2022-07-18T03:06:33;21.60;69.80
19019;DHT22;9642;50.842;4.348;2022-07-18T03:09:00;21.70;69.90
19019;DHT22;9642;50.842;4.348;2022-07-18T03:11:26;21.60;70.20
19019;DHT22;9642;50.842;4.348;2022-07-18T03:13:52;21.60;70.40
19019;DHT22;9642;50.842;4.348;2022-07-18T03:16:18;21.60;70.20
19019;DHT22;9642;50.842;4.348;2022-07-18T03:18:45;21.60;70.20
19019;DHT22;9642;50.842;4.348;2022-07-18T03:21:10;21.50;70.20
19019;DHT22;9642;50.842;4.348;2022-07-18T03:23:36;21.50;70.50
19019;DHT22;9642;50.842;4.348;2022-07-18T03:26:02;21.50;70.80
19019;DHT22;9642;50.842;4.348;2022-07-18T03:28:28;21.40;71.10
19019;DHT22;9642;50.842;4.348;2022-07-18T03:30:54;21.40;71.20
19019;DHT22;9642;50.842;4.348;2022-07-18T03:33:20;21.40;71.20
19019;DHT22;9642;50.842;4.348;2022-07-18T03:35:46;21.40;71.40
19019;DHT22;9642;50.842;4.348;2022-07-18T03:38:12;21.50;71.10
19019;DHT22;9642;50.842;4.348;2022-07-18T03:40:39;21.50;71.00
19019;DHT22;9642;50.842;4.348;2022-07-18T03:43:04;21.50;71.10
19019;DHT22;9642;50.842;4.348;2022-07-18T03:45:30;21.40;71.60
19019;DHT22;9642;50.842;4.348;2022-07-18T03:47:56;21.40;71.60
19019;DHT22;9642;50.842;4.348;2022-07-18T03:50:22;21.40;71.70
19019;DHT22;9642;50.842;4.348;2022-07-18T03:52:48;21.40;71.70
19019;DHT22;9642;50.842;4.348;2022-07-18T03:55:14;21.50;71.60
19019;DHT22;9642;50.842;4.348;2022-07-18T03:57:40;21.40;71.70
19019;DHT22;9642;50.842;4.348;2022-07-18T04:00:07;21.50;71.80
19019;DHT22;9642;50.842;4.348;2022-07-18T04:02:45;21.40;71.80
19019;DHT22;9642;50.842;4.348;2022-07-18T04:05:13;21.40;72.20
19019;DHT22;9642;50.842;4.348;2022-07-18T04:07:39;21.40;72.10
19019;DHT22;9642;50.842;4.348;2022-07-18T04:10:07;21.40;72.10
19019;DHT22;9642;50.842;4.348;2022-07-18T04:12:34;21.50;72.30
19019;DHT22;9642;50.842;4.348;2022-07-18T04:15:00;21.40;72.30
19019;DHT22;9642;50.842;4.348;2022-07-18T04:17:26;21.30;72.60
19019;DHT22;9642;50.842;4.348;2022-07-18T04:19:52;21.30;73.00
19019;DHT22;9642;50.842;4.348;2022-07-18T04:22:18;21.40;73.00
19019;DHT22;9642;50.842;4.348;2022-07-18T04:24:44;21.40;73.70
19019;DHT22;9642;50.842;4.348;2022-07-18T04:27:10;21.40;74.10
19019;DHT22;9642;50.842;4.348;2022-07-18T04:29:36;21.30;74.10
19019;DHT22;9642;50.842;4.348;2022-07-18T04:32:03;21.30;74.50
19019;DHT22;9642;50.842;4.348;2022-07-18T04:34:29;21.30;74.60
19019;DHT22;9642;50.842;4.348;2022-07-18T04:36:55;21.30;74.80
19019;DHT22;9642;50.842;4.348;2022-07-18T04:39:21;21.30;75.10
19019;DHT22;9642;50.842;4.348;2022-07-18T04:41:47;21.40;75.40
19019;DHT22;9642;50.842;4.348;2022-07-18T04:44:13;21.40;75.50
19019;DHT22;9642;50.842;4.348;2022-07-18T04:46:39;21.40;75.30
19019;DHT22;9642;50.842;4.348;2022-07-18T04:49:05;21.50;75.30
19019;DHT22;9642;50.842;4.348;2022-07-18T04:51:31;21.60;75.30
19019;DHT22;9642;50.842;4.348;2022-07-18T04:53:58;21.50;74.80
19019;DHT22;9642;50.842;4.348;2022-07-18T04:56:24;21.50;75.10
19019;DHT22;9642;50.842;4.348;2022-07-18T04:58:50;21.50;75.20
19019;DHT22;9642;50.842;4.348;2022-07-18T05:01:17;21.60;75.20
19019;DHT22;9642;50.842;4.348;2022-07-18T05:03:44;21.60;75.10
19019;DHT22;9642;50.842;4.348;2022-07-18T05:06:11;21.70;75.10
19019;DHT22;9642;50.842;4.348;2022-07-18T05:08:36;21.70;74.60
19019;DHT22;9642;50.842;4.348;2022-07-18T05:11:02;21.70;74.60
19019;DHT22;9642;50.842;4.348;2022-07-18T05:13:29;21.80;74.90
19019;DHT22;9642;50.842;4.348;2022-07-18T05:15:55;21.90;75.40
19019;DHT22;9642;50.842;4.348;2022-07-18T05:18:21;21.90;75.70
19019;DHT22;9642;50.842;4.348;2022-07-18T05:20:47;22.00;75.50
19019;DHT22;9642;50.842;4.348;2022-07-18T05:23:14;22.10;75.20
19019;DHT22;9642;50.842;4.348;2022-07-18T05:25:42;22.00;75.60
19019;DHT22;9642;50.842;4.348;2022-07-18T05:28:08;21.90;75.60
19019;DHT22;9642;50.842;4.348;2022-07-18T05:30:33;21.90;75.60
19019;DHT22;9642;50.842;4.348;2022-07-18T05:32:59;22.00;75.70
19019;DHT22;9642;50.842;4.348;2022-07-18T05:35:25;22.00;75.60
19019;DHT22;9642;50.842;4.348;2022-07-18T05:37:51;22.10;75.90
19019;DHT22;9642;50.842;4.348;2022-07-18T05:40:17;22.10;75.40
19019;DHT22;9642;50.842;4.348;2022-07-18T05:42:43;22.20;75.00
19019;DHT22;9642;50.842;4.348;2022-07-18T05:45:09;22.20;72.70
19019;DHT22;9642;50.842;4.348;2022-07-18T05:47:38;22.30;72.70
19019;DHT22;9642;50.842;4.348;2022-07-18T05:50:06;22.30;72.90
19019;DHT22;9642;50.842;4.348;2022-07-18T05:52:34;22.40;73.10
19019;DHT22;9642;50.842;4.348;2022-07-18T05:55:00;22.40;73.00
19019;DHT22;9642;50.842;4.348;2022-07-18T05:57:28;22.50;72.70
19019;DHT22;9642;50.842;4.348;2022-07-18T05:59:54;22.50;72.60
19019;DHT22;9642;50.842;4.348;2022-07-18T06:02:22;22.50;72.40
19019;DHT22;9642;50.842;4.348;2022-07-18T06:04:50;22.50;72.50
19019;DHT22;9642;50.842;4.348;2022-07-18T06:07:15;22.70;72.00
19019;DHT22;9642;50.842;4.348;2022-07-18T06:09:41;22.70;71.60
19019;DHT22;9642;50.842;4.348;2022-07-18T06:12:08;22.80;71.10
19019;DHT22;9642;50.842;4.348;2022-07-18T06:14:34;22.90;71.00
19019;DHT22;9642;50.842;4.348;2022-07-18T06:17:01;23.10;70.20
19019;DHT22;9642;50.842;4.348;2022-07-18T06:19:27;23.00;70.20
19019;DHT22;9642;50.842;4.348;2022-07-18T06:21:53;23.10;70.20
19019;DHT22;9642;50.842;4.348;2022-07-18T06:24:19;23.10;70.10
19019;DHT22;9642;50.842;4.348;2022-07-18T06:26:45;23.10;70.30
19019;DHT22;9642;50.842;4.348;2022-07-18T06:29:11;23.10;70.20
19019;DHT22;9642;50.842;4.348;2022-07-18T06:31:37;23.20;71.30
19019;DHT22;9642;50.842;4.348;2022-07-18T06:34:03;23.30;70.30
19019;DHT22;9642;50.842;4.348;2022-07-18T06:36:29;23.40;70.10
19019;DHT22;9642;50.842;4.348;2022-07-18T06:38:55;23.50;70.10
19019;DHT22;9642;50.842;4.348;2022-07-18T06:41:22;23.50;70.00
19019;DHT22;9642;50.842;4.348;2022-07-18T06:43:48;23.60;69.80
19019;DHT22;9642;50.842;4.348;2022-07-18T06:46:15;23.70;69.50
19019;DHT22;9642;50.842;4.348;2022-07-18T06:48:41;23.80;69.40
19019;DHT22;9642;50.842;4.348;2022-07-18T06:51:07;23.90;68.90
19019;DHT22;9642;50.842;4.348;2022-07-18T06:53:34;24.00;68.50
19019;DHT22;9642;50.842;4.348;2022-07-18T06:56:00;24.10;68.40
19019;DHT22;9642;50.842;4.348;2022-07-18T06:58:29;24.10;68.40
19019;DHT22;9642;50.842;4.348;2022-07-18T07:00:59;24.20;67.70
19019;DHT22;9642;50.842;4.348;2022-07-18T07:03:26;24.30;67.90
19019;DHT22;9642;50.842;4.348;2022-07-18T07:05:54;24.30;67.70
19019;DHT22;9642;50.842;4.348;2022-07-18T07:08:19;24.40;67.60
19019;DHT22;9642;50.842;4.348;2022-07-18T07:10:48;24.60;67.30
19019;DHT22;9642;50.842;4.348;2022-07-18T07:13:17;24.80;66.80
19019;DHT22;9642;50.842;4.348;2022-07-18T07:15:44;24.90;66.30
19019;DHT22;9642;50.842;4.348;2022-07-18T07:18:10;25.00;66.20
19019;DHT22;9642;50.842;4.348;2022-07-18T07:20:36;25.00;66.10
19019;DHT22;9642;50.842;4.348;2022-07-18T07:23:02;25.20;65.60
19019;DHT22;9642;50.842;4.348;2022-07-18T07:25:34;25.20;65.40
19019;DHT22;9642;50.842;4.348;2022-07-18T07:28:02;25.40;65.20
19019;DHT22;9642;50.842;4.348;2022-07-18T07:30:28;25.40;64.60
19019;DHT22;9642;50.842;4.348;2022-07-18T07:32:59;25.50;64.70
19019;DHT22;9642;50.842;4.348;2022-07-18T07:35:25;25.80;64.10
19019;DHT22;9642;50.842;4.348;2022-07-18T07:37:57;25.90;63.50
19019;DHT22;9642;50.842;4.348;2022-07-18T07:40:27;26.10;62.90
19019;DHT22;9642;50.842;4.348;2022-07-18T07:43:07;26.20;62.70
19019;DHT22;9642;50.842;4.348;2022-07-18T07:45:34;26.30;62.50
19019;DHT22;9642;50.842;4.348;2022-07-18T07:48:00;26.30;62.00
19019;DHT22;9642;50.842;4.348;2022-07-18T07:50:26;26.50;61.80
19019;DHT22;9642;50.842;4.348;2022-07-18T07:52:52;26.40;61.70
19019;DHT22;9642;50.842;4.348;2022-07-18T07:55:18;26.50;62.00
19019;DHT22;9642;50.842;4.348;2022-07-18T07:57:43;26.50;61.80
19019;DHT22;9642;50.842;4.348;2022-07-18T08:00:10;26.80;61.40
19019;DHT22;9642;50.842;4.348;2022-07-18T08:05:20;26.80;60.20
19019;DHT22;9642;50.842;4.348;2022-07-18T08:07:46;26.80;60.20
19019;DHT22;9642;50.842;4.348;2022-07-18T08:10:13;26.70;60.80
19019;DHT22;9642;50.842;4.348;2022-07-18T08:12:39;26.80;60.40
19019;DHT22;9642;50.842;4.348;2022-07-18T08:15:05;26.80;60.40
19019;DHT22;9642;50.842;4.348;2022-07-18T08:17:31;27.00;60.20
19019;DHT22;9642;50.842;4.348;2022-07-18T08:19:57;27.10;60.00
19019;DHT22;9642;50.842;4.348;2022-07-18T08:22:23;27.30;59.60
19019;DHT22;9642;50.842;4.348;2022-07-18T08:24:48;27.40;59.30
19019;DHT22;9642;50.842;4.348;2022-07-18T08:27:15;27.50;58.80
19019;DHT22;9642;50.842;4.348;2022-07-18T08:29:41;27.60;59.00
19019;DHT22;9642;50.842;4.348;2022-07-18T08:32:07;28.00;58.60
19019;DHT22;9642;50.842;4.348;2022-07-18T08:34:34;28.70;57.70
19019;DHT22;9642;50.842;4.348;2022-07-18T08:37:00;30.20;54.60
19019;DHT22;9642;50.842;4.348;2022-07-18T08:39:25;31.70;52.10
19019;DHT22;9642;50.842;4.348;2022-07-18T08:41:54;33.20;50.10
19019;DHT22;9642;50.842;4.348;2022-07-18T08:44:20;33.70;49.00
19019;DHT22;9642;50.842;4.348;2022-07-18T08:46:50;34.30;48.00
19019;DHT22;9642;50.842;4.348;2022-07-18T08:49:18;34.50;47.10
19019;DHT22;9642;50.842;4.348;2022-07-18T08:51:44;34.30;47.10
19019;DHT22;9642;50.842;4.348;2022-07-18T08:54:10;33.40;48.40
19019;DHT22;9642;50.842;4.348;2022-07-18T08:56:37;32.50;49.80
19019;DHT22;9642;50.842;4.348;2022-07-18T08:59:03;32.20;50.50
19019;DHT22;9642;50.842;4.348;2022-07-18T09:01:32;33.10;49.50
19019;DHT22;9642;50.842;4.348;2022-07-18T09:03:59;34.70;46.90
19019;DHT22;9642;50.842;4.348;2022-07-18T09:06:50;36.70;44.40
19019;DHT22;9642;50.842;4.348;2022-07-18T09:09:18;38.40;42.10
19019;DHT22;9642;50.842;4.348;2022-07-18T09:11:56;38.40;40.30
19019;DHT22;9642;50.842;4.348;2022-07-18T09:14:39;38.10;40.20
19019;DHT22;9642;50.842;4.348;2022-07-18T09:17:23;38.70;39.60
19019;DHT22;9642;50.842;4.348;2022-07-18T09:22:33;37.50;40.70
19019;DHT22;9642;50.842;4.348;2022-07-18T09:25:11;37.10;41.00
19019;DHT22;9642;50.842;4.348;2022-07-18T09:27:43;38.00;40.10
19019;DHT22;9642;50.842;4.348;2022-07-18T09:32:36;39.40;38.50
19019;DHT22;9642;50.842;4.348;2022-07-18T09:35:11;40.10;37.50
19019;DHT22;9642;50.842;4.348;2022-07-18T09:37:38;40.20;37.20
19019;DHT22;9642;50.842;4.348;2022-07-18T09:40:22;39.80;38.00
19019;DHT22;9642;50.842;4.348;2022-07-18T09:42:54;40.40;37.20
19019;DHT22;9642;50.842;4.348;2022-07-18T09:45:43;40.00;36.70
19019;DHT22;9642;50.842;4.348;2022-07-18T09:48:12;40.20;36.60
19019;DHT22;9642;50.842;4.348;2022-07-18T09:51:04;39.40;37.30
19019;DHT22;9642;50.842;4.348;2022-07-18T09:58:32;40.20;37.80
19019;DHT22;9642;50.842;4.348;2022-07-18T10:01:00;40.70;35.10
19019;DHT22;9642;50.842;4.348;2022-07-18T10:03:27;40.30;35.50
19019;DHT22;9642;50.842;4.348;2022-07-18T10:05:56;40.00;35.30
19019;DHT22;9642;50.842;4.348;2022-07-18T10:08:27;40.20;36.10
19019;DHT22;9642;50.842;4.348;2022-07-18T10:10:55;40.50;35.20
19019;DHT22;9642;50.842;4.348;2022-07-18T10:13:23;40.30;34.70
19019;DHT22;9642;50.842;4.348;2022-07-18T10:15:50;40.60;34.10
19019;DHT22;9642;50.842;4.348;2022-07-18T10:18:21;40.50;32.70
19019;DHT22;9642;50.842;4.348;2022-07-18T10:20:52;40.10;32.90
19019;DHT22;9642;50.842;4.348;2022-07-18T10:23:26;40.30;32.40
19019;DHT22;9642;50.842;4.348;2022-07-18T10:32:07;39.80;31.20
19019;DHT22;9642;50.842;4.348;2022-07-18T10:34:14;40.20;31.30
19019;DHT22;9642;50.842;4.348;2022-07-18T10:39:35;41.00;31.10
19019;DHT22;9642;50.842;4.348;2022-07-18T10:57:38;40.30;32.30
19019;DHT22;9642;50.842;4.348;2022-07-18T11:00:14;40.90;31.70
19019;DHT22;9642;50.842;4.348;2022-07-18T11:03:04;41.00;30.40
19019;DHT22;9642;50.842;4.348;2022-07-18T11:05:33;40.60;30.90
19019;DHT22;9642;50.842;4.348;2022-07-18T11:19:14;38.70;32.80
19019;DHT22;9642;50.842;4.348;2022-07-18T11:21:32;38.80;32.30
19019;DHT22;9642;50.842;4.348;2022-07-18T11:24:03;39.10;32.70
19019;DHT22;9642;50.842;4.348;2022-07-18T11:26:31;39.00;32.30
19019;DHT22;9642;50.842;4.348;2022-07-18T11:29:12;39.80;32.00
19019;DHT22;9642;50.842;4.348;2022-07-18T11:31:56;39.40;31.50
19019;DHT22;9642;50.842;4.348;2022-07-18T11:34:26;38.60;32.00
19019;DHT22;9642;50.842;4.348;2022-07-18T11:36:53;38.50;32.40
19019;DHT22;9642;50.842;4.348;2022-07-18T11:39:30;38.20;33.00
19019;DHT22;9642;50.842;4.348;2022-07-18T11:41:57;39.60;32.30
19019;DHT22;9642;50.842;4.348;2022-07-18T11:44:24;39.90;31.20
19019;DHT22;9642;50.842;4.348;2022-07-18T11:47:05;39.70;31.40
19019;DHT22;9642;50.842;4.348;2022-07-18T11:49:32;39.50;31.30
19019;DHT22;9642;50.842;4.348;2022-07-18T11:51:59;39.70;30.80
19019;DHT22;9642;50.842;4.348;2022-07-18T11:54:25;39.30;31.00
19019;DHT22;9642;50.842;4.348;2022-07-18T11:56:55;39.40;31.10
19019;DHT22;9642;50.842;4.348;2022-07-18T11:59:22;39.90;30.80
19019;DHT22;9642;50.842;4.348;2022-07-18T12:01:48;39.70;30.40
19019;DHT22;9642;50.842;4.348;2022-07-18T12:04:24;39.90;30.70
19019;DHT22;9642;50.842;4.348;2022-07-18T12:09:37;39.50;30.00
19019;DHT22;9642;50.842;4.348;2022-07-18T12:12:11;39.40;30.00
19019;DHT22;9642;50.842;4.348;2022-07-18T12:14:38;39.80;29.80
19019;DHT22;9642;50.842;4.348;2022-07-18T12:17:05;38.90;31.10
19019;DHT22;9642;50.842;4.348;2022-07-18T12:19:39;38.30;31.10
19019;DHT22;9642;50.842;4.348;2022-07-18T12:22:11;38.60;31.10
19019;DHT22;9642;50.842;4.348;2022-07-18T12:24:50;39.00;30.60
19019;DHT22;9642;50.842;4.348;2022-07-18T12:30:17;39.30;31.30
19019;DHT22;9642;50.842;4.348;2022-07-18T12:32:51;39.00;30.00
19019;DHT22;9642;50.842;4.348;2022-07-18T12:35:20;38.50;30.30
19019;DHT22;9642;50.842;4.348;2022-07-18T12:37:57;38.80;30.60
19019;DHT22;9642;50.842;4.348;2022-07-18T12:40:25;39.00;31.50
19019;DHT22;9642;50.842;4.348;2022-07-18T12:43:03;39.10;30.50
19019;DHT22;9642;50.842;4.348;2022-07-18T12:45:29;38.90;30.80
19019;DHT22;9642;50.842;4.348;2022-07-18T12:47:55;38.90;30.70
19019;DHT22;9642;50.842;4.348;2022-07-18T12:50:21;39.00;32.80
19019;DHT22;9642;50.842;4.348;2022-07-18T12:52:47;39.10;31.20
19019;DHT22;9642;50.842;4.348;2022-07-18T12:55:13;39.00;32.00
19019;DHT22;9642;50.842;4.348;2022-07-18T12:57:39;38.20;31.90
19019;DHT22;9642;50.842;4.348;2022-07-18T13:00:05;37.80;31.60
19019;DHT22;9642;50.842;4.348;2022-07-18T13:02:31;37.20;31.80
19019;DHT22;9642;50.842;4.348;2022-07-18T13:04:57;37.10;32.70
19019;DHT22;9642;50.842;4.348;2022-07-18T13:07:23;37.00;32.80
19019;DHT22;9642;50.842;4.348;2022-07-18T13:09:49;36.80;31.70
19019;DHT22;9642;50.842;4.348;2022-07-18T13:12:14;35.80;32.40
19019;DHT22;9642;50.842;4.348;2022-07-18T13:14:40;35.30;33.40
19019;DHT22;9642;50.842;4.348;2022-07-18T13:17:06;35.00;33.90
19019;DHT22;9642;50.842;4.348;2022-07-18T13:19:32;34.60;34.00
19019;DHT22;9642;50.842;4.348;2022-07-18T13:21:59;34.80;35.70
19019;DHT22;9642;50.842;4.348;2022-07-18T13:24:25;35.00;34.40
19019;DHT22;9642;50.842;4.348;2022-07-18T13:26:50;35.00;34.30
19019;DHT22;9642;50.842;4.348;2022-07-18T13:29:16;35.10;34.70
19019;DHT22;9642;50.842;4.348;2022-07-18T13:31:43;35.30;34.50
19019;DHT22;9642;50.842;4.348;2022-07-18T13:34:09;35.20;34.10
19019;DHT22;9642;50.842;4.348;2022-07-18T13:36:35;35.00;34.50
19019;DHT22;9642;50.842;4.348;2022-07-18T13:39:01;35.00;34.60
19019;DHT22;9642;50.842;4.348;2022-07-18T13:41:28;35.40;34.20
19019;DHT22;9642;50.842;4.348;2022-07-18T13:43:54;35.10;33.90
19019;DHT22;9642;50.842;4.348;2022-07-18T13:46:21;35.00;35.70
19019;DHT22;9642;50.842;4.348;2022-07-18T13:48:47;34.90;34.50
19019;DHT22;9642;50.842;4.348;2022-07-18T13:51:17;35.00;34.50
19019;DHT22;9642;50.842;4.348;2022-07-18T13:53:44;34.90;34.80
19019;DHT22;9642;50.842;4.348;2022-07-18T13:56:11;35.20;34.70
19019;DHT22;9642;50.842;4.348;2022-07-18T13:58:40;35.20;34.90
19019;DHT22;9642;50.842;4.348;2022-07-18T14:01:08;35.30;35.10
19019;DHT22;9642;50.842;4.348;2022-07-18T14:03:34;35.30;34.80
19019;DHT22;9642;50.842;4.348;2022-07-18T14:06:00;35.50;35.40
19019;DHT22;9642;50.842;4.348;2022-07-18T14:08:26;35.70;35.70
19019;DHT22;9642;50.842;4.348;2022-07-18T14:10:52;35.70;34.80
19019;DHT22;9642;50.842;4.348;2022-07-18T14:13:18;35.80;35.30
19019;DHT22;9642;50.842;4.348;2022-07-18T14:15:44;36.00;34.50
19019;DHT22;9642;50.842;4.348;2022-07-18T14:18:10;36.00;34.20
19019;DHT22;9642;50.842;4.348;2022-07-18T14:20:37;36.00;34.00
19019;DHT22;9642;50.842;4.348;2022-07-18T14:23:02;35.80;34.70
19019;DHT22;9642;50.842;4.348;2022-07-18T14:25:29;35.90;35.00
19019;DHT22;9642;50.842;4.348;2022-07-18T14:27:55;35.90;34.40
19019;DHT22;9642;50.842;4.348;2022-07-18T14:30:22;35.90;34.00
19019;DHT22;9642;50.842;4.348;2022-07-18T14:32:48;35.80;34.10
19019;DHT22;9642;50.842;4.348;2022-07-18T14:35:14;36.00;34.80
19019;DHT22;9642;50.842;4.348;2022-07-18T14:37:39;36.20;33.90
19019;DHT22;9642;50.842;4.348;2022-07-18T14:40:06;35.80;33.60
19019;DHT22;9642;50.842;4.348;2022-07-18T14:42:32;35.50;33.90
19019;DHT22;9642;50.842;4.348;2022-07-18T14:44:58;35.50;34.40
19019;DHT22;9642;50.842;4.348;2022-07-18T14:47:26;35.70;33.90
19019;DHT22;9642;50.842;4.348;2022-07-18T14:49:52;36.00;34.10
19019;DHT22;9642;50.842;4.348;2022-07-18T14:52:18;36.00;34.10
19019;DHT22;9642;50.842;4.348;2022-07-18T14:54:44;36.10;33.30
19019;DHT22;9642;50.842;4.348;2022-07-18T14:57:10;36.20;33.40
19019;DHT22;9642;50.842;4.348;2022-07-18T14:59:36;36.30;34.00
19019;DHT22;9642;50.842;4.348;2022-07-18T15:02:03;36.40;33.70
19019;DHT22;9642;50.842;4.348;2022-07-18T15:04:35;36.50;34.00
19019;DHT22;9642;50.842;4.348;2022-07-18T15:07:02;36.60;33.70
19019;DHT22;9642;50.842;4.348;2022-07-18T15:09:28;36.20;33.50
19019;DHT22;9642;50.842;4.348;2022-07-18T15:11:54;36.20;33.80
19019;DHT22;9642;50.842;4.348;2022-07-18T15:14:21;36.00;33.90
19019;DHT22;9642;50.842;4.348;2022-07-18T15:16:48;35.90;33.70
19019;DHT22;9642;50.842;4.348;2022-07-18T15:19:18;35.90;33.70
19019;DHT22;9642;50.842;4.348;2022-07-18T15:21:44;35.90;34.10
19019;DHT22;9642;50.842;4.348;2022-07-18T15:24:11;35.90;34.80
19019;DHT22;9642;50.842;4.348;2022-07-18T15:26:37;36.00;34.50
19019;DHT22;9642;50.842;4.348;2022-07-18T15:29:03;35.90;34.40
19019;DHT22;9642;50.842;4.348;2022-07-18T15:31:33;36.10;34.40
19019;DHT22;9642;50.842;4.348;2022-07-18T15:34:00;36.00;34.10
19019;DHT22;9642;50.842;4.348;2022-07-18T15:36:27;35.80;34.60
19019;DHT22;9642;50.842;4.348;2022-07-18T15:38:57;35.90;34.90
19019;DHT22;9642;50.842;4.348;2022-07-18T15:41:28;35.90;35.10
19019;DHT22;9642;50.842;4.348;2022-07-18T15:43:55;35.80;34.80
19019;DHT22;9642;50.842;4.348;2022-07-18T15:46:21;35.50;35.00
19019;DHT22;9642;50.842;4.348;2022-07-18T15:48:47;35.30;35.40
19019;DHT22;9642;50.842;4.348;2022-07-18T15:51:13;35.50;36.10
19019;DHT22;9642;50.842;4.348;2022-07-18T15:53:40;35.50;35.50
19019;DHT22;9642;50.842;4.348;2022-07-18T15:56:06;35.60;36.10
19019;DHT22;9642;50.842;4.348;2022-07-18T15:58:33;35.90;35.40
19019;DHT22;9642;50.842;4.348;2022-07-18T16:01:00;35.80;34.80
19019;DHT22;9642;50.842;4.348;2022-07-18T16:03:26;35.90;35.10
19019;DHT22;9642;50.842;4.348;2022-07-18T16:05:52;35.80;34.60
19019;DHT22;9642;50.842;4.348;2022-07-18T16:08:23;35.60;34.90
19019;DHT22;9642;50.842;4.348;2022-07-18T16:10:49;35.50;35.70
19019;DHT22;9642;50.842;4.348;2022-07-18T16:13:15;35.40;35.90
19019;DHT22;9642;50.842;4.348;2022-07-18T16:15:42;35.60;35.50
19019;DHT22;9642;50.842;4.348;2022-07-18T16:18:09;35.60;35.20
19019;DHT22;9642;50.842;4.348;2022-07-18T16:20:35;35.70;35.50
19019;DHT22;9642;50.842;4.348;2022-07-18T16:23:01;35.80;35.10
19019;DHT22;9642;50.842;4.348;2022-07-18T16:25:27;35.40;35.00
19019;DHT22;9642;50.842;4.348;2022-07-18T16:27:54;35.30;35.70
19019;DHT22;9642;50.842;4.348;2022-07-18T16:30:21;35.30;35.70
19019;DHT22;9642;50.842;4.348;2022-07-18T16:32:49;35.50;35.10
19019;DHT22;9642;50.842;4.348;2022-07-18T16:35:15;35.50;35.10
19019;DHT22;9642;50.842;4.348;2022-07-18T16:37:41;35.30;35.90
19019;DHT22;9642;50.842;4.348;2022-07-18T16:40:11;35.10;35.40